createdAt,value
2019-04-26T00:00:28.325Z,9.50
2019-04-26T00:01:28.311Z,8.70
2019-04-26T00:02:28.297Z,4.80
2019-04-26T00:03:28.281Z,5.80
2019-04-26T00:04:28.262Z,9.00
2019-04-26T00:05:34.508Z,8.60
2019-04-26T00:06:28.230Z,9.00
2019-04-26T00:07:28.218Z,11.80
2019-04-26T00:08:28.199Z,10.60
2019-04-26T00:09:28.185Z,9.20
2019-04-26T00:10:28.166Z,6.30
2019-04-26T00:11:28.153Z,6.20
2019-04-26T00:12:28.138Z,5.30
2019-04-26T00:13:28.126Z,5.90
2019-04-26T00:14:28.102Z,8.80
2019-04-26T00:15:28.092Z,9.00
2019-04-26T00:16:28.101Z,11.60
2019-04-26T00:17:28.055Z,9.10
2019-04-26T00:18:28.046Z,7.70
2019-04-26T00:19:28.025Z,7.30
2019-04-26T00:20:28.007Z,7.40
2019-04-26T00:21:27.995Z,7.50
2019-04-26T00:22:27.979Z,5.50
2019-04-26T00:23:27.969Z,6.10
2019-04-26T00:24:28.537Z,8.30
2019-04-26T00:25:27.931Z,8.70
2019-04-26T00:26:27.912Z,9.00
2019-04-26T00:27:27.902Z,7.20
2019-04-26T00:28:27.881Z,6.60
2019-04-26T00:29:27.866Z,7.60
2019-04-26T00:30:27.862Z,9.00
2019-04-26T00:31:27.834Z,10.30
2019-04-26T00:32:27.827Z,11.10
2019-04-26T00:33:27.816Z,9.60
2019-04-26T00:34:27.787Z,8.80
2019-04-26T00:35:27.780Z,10.00
2019-04-26T00:36:27.753Z,15.00
2019-04-26T00:37:27.739Z,14.60
2019-04-26T00:38:27.739Z,12.20
2019-04-26T00:39:27.714Z,8.80
2019-04-26T00:40:27.696Z,9.40
2019-04-26T00:41:27.676Z,10.20
2019-04-26T00:42:27.658Z,10.50
2019-04-26T00:43:27.644Z,11.50
2019-04-26T00:44:27.628Z,16.20
2019-04-26T00:45:27.615Z,20.80
2019-04-26T00:46:27.596Z,17.40
2019-04-26T00:47:27.596Z,17.30
2019-04-26T00:48:27.563Z,17.50
2019-04-26T00:49:27.550Z,14.00
2019-04-26T00:50:27.541Z,13.60
2019-04-26T00:51:27.517Z,12.20
2019-04-26T00:52:27.502Z,13.10
2019-04-26T00:53:27.485Z,10.90
2019-04-26T00:54:27.470Z,12.50
2019-04-26T00:55:27.456Z,11.30
2019-04-26T00:56:27.438Z,12.50
2019-04-26T00:57:27.422Z,12.80
2019-04-26T00:58:27.408Z,16.30
2019-04-26T00:59:27.393Z,23.80
2019-04-26T01:01:27.359Z,43.10
2019-04-26T01:02:27.345Z,20.40
2019-04-26T01:03:27.332Z,18.50
2019-04-26T01:04:27.311Z,19.50
2019-04-26T01:05:27.294Z,27.70
2019-04-26T01:06:33.570Z,21.20
2019-04-26T01:07:27.273Z,21.00
2019-04-26T01:08:27.249Z,21.70
2019-04-26T01:09:27.239Z,26.70
2019-04-26T01:10:27.224Z,32.60
2019-04-26T01:11:27.209Z,25.60
2019-04-26T01:12:27.184Z,25.00
2019-04-26T01:13:27.181Z,17.20
2019-04-26T01:14:27.154Z,16.00
2019-04-26T01:15:27.144Z,17.10
2019-04-26T01:16:27.122Z,19.70
2019-04-26T01:17:27.103Z,17.00
2019-04-26T01:18:27.090Z,15.00
2019-04-26T01:19:27.074Z,13.20
2019-04-26T01:20:27.056Z,12.90
2019-04-26T01:21:27.044Z,14.50
2019-04-26T01:22:27.612Z,14.30
2019-04-26T01:23:27.271Z,18.70
2019-04-26T01:24:27.309Z,17.30
2019-04-26T01:25:27.427Z,16.30
2019-04-26T01:26:27.431Z,13.70
2019-04-26T01:27:27.710Z,29.30
2019-04-26T01:28:27.769Z,16.60
2019-04-26T01:29:27.941Z,17.70
2019-04-26T01:30:27.926Z,12.10
2019-04-26T01:31:26.880Z,12.30
2019-04-26T01:32:26.867Z,13.00
2019-04-26T01:33:26.851Z,14.40
2019-04-26T01:34:26.834Z,12.80
2019-04-26T01:35:26.819Z,16.30
2019-04-26T01:36:26.797Z,19.30
2019-04-26T01:37:26.794Z,15.30
2019-04-26T01:38:27.688Z,12.90
2019-04-26T01:39:27.899Z,13.30
2019-04-26T01:40:26.732Z,13.40
2019-04-26T01:41:26.738Z,15.90
2019-04-26T01:42:26.698Z,21.00
2019-04-26T01:43:26.683Z,20.00
2019-04-26T01:44:26.668Z,14.50
2019-04-26T01:45:27.831Z,17.30
2019-04-26T01:46:26.935Z,17.60
2019-04-26T01:47:26.616Z,17.80
2019-04-26T01:48:27.126Z,17.90
2019-04-26T01:49:26.595Z,15.00
2019-04-26T01:50:27.401Z,15.70
2019-04-26T01:51:26.653Z,17.40
2019-04-26T01:52:27.635Z,16.60
2019-04-26T01:53:26.657Z,20.70
2019-04-26T01:54:27.741Z,16.70
2019-04-26T01:55:26.979Z,13.70
2019-04-26T01:56:27.111Z,17.30
2019-04-26T01:57:27.276Z,17.80
2019-04-26T01:58:27.222Z,18.00
2019-04-26T01:59:27.390Z,18.50
2019-04-26T02:00:27.458Z,16.80
2019-04-26T02:01:27.424Z,18.30
2019-04-26T02:02:26.371Z,15.80
2019-04-26T02:03:26.367Z,19.40
2019-04-26T02:04:26.336Z,19.60
2019-04-26T02:05:26.320Z,16.40
2019-04-26T02:06:31.277Z,16.50
2019-04-26T02:07:26.287Z,15.30
2019-04-26T02:08:26.325Z,14.80
2019-04-26T02:09:26.390Z,13.90
2019-04-26T02:10:26.680Z,14.00
2019-04-26T02:11:26.745Z,13.40
2019-04-26T02:12:26.724Z,14.40
2019-04-26T02:13:26.853Z,13.30
2019-04-26T02:14:26.926Z,15.60
2019-04-26T02:15:27.187Z,15.20
2019-04-26T02:16:27.003Z,14.70
2019-04-26T02:17:27.263Z,14.90
2019-04-26T02:18:26.107Z,18.20
2019-04-26T02:19:26.106Z,23.90
2019-04-26T02:20:26.074Z,16.00
2019-04-26T02:21:26.327Z,17.20
2019-04-26T02:22:26.041Z,21.50
2019-04-26T02:23:26.382Z,28.00
2019-04-26T02:24:26.417Z,20.40
2019-04-26T02:25:26.072Z,17.60
2019-04-26T02:26:26.648Z,16.50
2019-04-26T02:27:26.242Z,20.80
2019-04-26T02:28:26.791Z,19.80
2019-04-26T02:29:26.833Z,18.70
2019-04-26T02:30:27.066Z,18.60
2019-04-26T02:31:27.309Z,17.90
2019-04-26T02:32:27.236Z,17.40
2019-04-26T02:33:27.495Z,20.80
2019-04-26T02:34:27.941Z,20.10
2019-04-26T02:35:27.074Z,23.80
2019-04-26T02:36:44.928Z,15.10
2019-04-26T02:37:26.991Z,16.90
2019-04-26T02:38:27.442Z,15.30
2019-04-26T02:39:27.451Z,15.90
2019-04-26T02:40:27.545Z,18.30
2019-04-26T02:41:27.417Z,18.10
2019-04-26T02:42:26.598Z,18.60
2019-04-26T02:43:26.430Z,20.90
2019-04-26T02:44:26.617Z,18.00
2019-04-26T02:45:26.960Z,23.90
2019-04-26T02:46:28.462Z,25.30
2019-04-26T02:47:26.942Z,16.30
2019-04-26T02:48:27.127Z,21.40
2019-04-26T02:49:27.430Z,19.20
2019-04-26T02:50:28.358Z,18.20
2019-04-26T02:51:28.490Z,16.00
2019-04-26T02:52:25.543Z,25.80
2019-04-26T02:53:25.523Z,27.60
2019-04-26T02:54:25.507Z,22.90
2019-04-26T02:55:25.493Z,21.80
2019-04-26T02:56:25.475Z,24.60
2019-04-26T02:57:25.456Z,21.50
2019-04-26T02:58:25.440Z,17.50
2019-04-26T02:59:25.426Z,17.00
2019-04-26T03:00:25.406Z,15.90
2019-04-26T03:01:25.394Z,18.90
2019-04-26T03:02:25.380Z,20.90
2019-04-26T03:03:25.359Z,16.30
2019-04-26T03:05:25.331Z,16.60
2019-04-26T03:06:25.304Z,18.50
2019-04-26T03:07:25.292Z,25.10
2019-04-26T03:08:25.272Z,24.90
2019-04-26T03:09:25.255Z,16.70
2019-04-26T03:10:25.247Z,18.90
2019-04-26T03:11:25.223Z,18.50
2019-04-26T03:12:25.204Z,20.40
2019-04-26T03:13:25.192Z,18.30
2019-04-26T03:14:25.173Z,19.60
2019-04-26T03:15:25.157Z,17.20
2019-04-26T03:16:25.142Z,16.40
2019-04-26T03:17:25.123Z,20.30
2019-04-26T03:18:25.105Z,27.90
2019-04-26T03:19:25.090Z,23.90
2019-04-26T03:20:25.070Z,23.60
2019-04-26T03:21:25.059Z,20.30
2019-04-26T03:22:25.039Z,17.20
2019-04-26T03:23:41.079Z,17.50
2019-04-26T03:24:25.010Z,16.20
2019-04-26T03:25:24.991Z,16.20
2019-04-26T03:26:24.973Z,23.60
2019-04-26T03:27:24.958Z,20.20
2019-04-26T03:28:25.147Z,18.90
2019-04-26T03:29:26.165Z,17.10
2019-04-26T03:30:24.910Z,20.10
2019-04-26T03:31:24.906Z,19.90
2019-04-26T03:32:24.873Z,23.60
2019-04-26T03:33:25.104Z,16.80
2019-04-26T03:34:24.838Z,14.80
2019-04-26T03:35:24.827Z,18.00
2019-04-26T03:36:24.817Z,16.10
2019-04-26T03:37:24.790Z,15.30
2019-04-26T03:38:24.771Z,17.20
2019-04-26T03:39:24.757Z,17.60
2019-04-26T03:40:24.741Z,20.30
2019-04-26T03:41:24.725Z,18.70
2019-04-26T03:42:24.709Z,18.10
2019-04-26T03:43:24.696Z,18.40
2019-04-26T03:44:24.673Z,15.50
2019-04-26T03:45:24.657Z,19.30
2019-04-26T03:46:24.640Z,15.30
2019-04-26T03:47:24.622Z,17.10
2019-04-26T03:48:24.606Z,16.80
2019-04-26T03:49:24.607Z,17.30
2019-04-26T03:50:24.576Z,18.00
2019-04-26T03:51:24.556Z,16.80
2019-04-26T03:52:24.544Z,17.90
2019-04-26T03:53:24.525Z,18.70
2019-04-26T03:54:24.519Z,20.30
2019-04-26T03:55:24.491Z,22.50
2019-04-26T03:56:24.472Z,20.60
2019-04-26T03:57:24.467Z,18.80
2019-04-26T03:58:24.442Z,17.90
2019-04-26T03:59:24.429Z,16.40
2019-04-26T04:00:24.417Z,17.10
2019-04-26T04:01:24.394Z,16.10
2019-04-26T04:02:24.375Z,14.60
2019-04-26T04:03:26.822Z,16.90
2019-04-26T04:04:24.341Z,17.70
2019-04-26T04:05:24.322Z,15.40
2019-04-26T04:06:24.310Z,15.40
2019-04-26T04:07:36.850Z,15.10
2019-04-26T04:08:24.270Z,17.60
2019-04-26T04:09:24.258Z,18.00
2019-04-26T04:10:24.244Z,17.00
2019-04-26T04:11:24.273Z,16.20
2019-04-26T04:12:24.341Z,14.40
2019-04-26T04:13:24.187Z,18.00
2019-04-26T04:14:24.298Z,17.70
2019-04-26T04:15:24.167Z,16.80
2019-04-26T04:16:24.141Z,17.30
2019-04-26T04:17:24.125Z,16.90
2019-04-26T04:18:24.105Z,13.90
2019-04-26T04:19:24.096Z,11.80
2019-04-26T04:20:24.071Z,12.20
2019-04-26T04:21:24.064Z,12.50
2019-04-26T04:22:24.040Z,15.50
2019-04-26T04:23:24.030Z,13.40
2019-04-26T04:24:24.002Z,15.90
2019-04-26T04:25:23.987Z,16.20
2019-04-26T04:26:23.969Z,14.10
2019-04-26T04:27:23.952Z,18.00
2019-04-26T04:28:23.936Z,15.20
2019-04-26T04:29:39.115Z,16.00
2019-04-26T04:30:23.908Z,12.80
2019-04-26T04:31:23.943Z,13.90
2019-04-26T04:32:23.868Z,18.00
2019-04-26T04:33:23.851Z,18.40
2019-04-26T04:34:23.838Z,20.00
2019-04-26T04:35:23.841Z,16.60
2019-04-26T04:36:23.802Z,13.70
2019-04-26T04:37:23.789Z,22.00
2019-04-26T04:38:23.795Z,28.70
2019-04-26T04:39:23.752Z,29.00
2019-04-26T04:40:23.741Z,13.30
2019-04-26T04:41:23.718Z,13.00
2019-04-26T04:42:23.704Z,11.40
2019-04-26T04:43:23.830Z,13.60
2019-04-26T04:44:23.673Z,13.70
2019-04-26T04:45:23.652Z,15.10
2019-04-26T04:46:23.704Z,13.00
2019-04-26T04:47:25.848Z,14.10
2019-04-26T04:48:23.613Z,12.90
2019-04-26T04:49:23.589Z,11.50
2019-04-26T04:50:23.571Z,11.30
2019-04-26T04:51:23.556Z,11.60
2019-04-26T04:52:23.537Z,13.60
2019-04-26T04:53:23.515Z,13.20
2019-04-26T04:54:23.502Z,14.70
2019-04-26T04:55:23.488Z,17.60
2019-04-26T04:56:23.474Z,21.10
2019-04-26T04:57:23.458Z,19.80
2019-04-26T04:58:23.439Z,14.40
2019-04-26T04:59:23.420Z,21.80
2019-04-26T05:00:23.405Z,19.20
2019-04-26T05:01:23.391Z,17.40
2019-04-26T05:02:23.376Z,22.10
2019-04-26T05:03:23.352Z,18.20
2019-04-26T05:04:23.333Z,20.00
2019-04-26T05:05:23.317Z,16.60
2019-04-26T05:06:23.309Z,18.50
2019-04-26T05:07:23.284Z,18.70
2019-04-26T05:08:23.267Z,13.00
2019-04-26T05:09:23.259Z,12.20
2019-04-26T05:10:23.237Z,13.40
2019-04-26T05:11:23.217Z,13.30
2019-04-26T05:12:23.207Z,12.80
2019-04-26T05:13:23.186Z,14.20
2019-04-26T05:14:23.169Z,13.20
2019-04-26T05:15:23.154Z,13.70
2019-04-26T05:16:23.132Z,14.30
2019-04-26T05:17:23.121Z,11.80
2019-04-26T05:19:23.086Z,13.10
2019-04-26T05:20:23.080Z,14.10
2019-04-26T05:21:23.051Z,14.90
2019-04-26T05:22:24.464Z,15.20
2019-04-26T05:23:23.018Z,13.60
2019-04-26T05:24:22.999Z,14.70
2019-04-26T05:25:22.982Z,15.20
2019-04-26T05:26:22.964Z,12.20
2019-04-26T05:27:22.944Z,13.20
2019-04-26T05:28:22.933Z,13.20
2019-04-26T05:29:22.922Z,12.60
2019-04-26T05:30:22.896Z,13.70
2019-04-26T05:31:22.881Z,14.20
2019-04-26T05:32:22.882Z,12.80
2019-04-26T05:33:22.845Z,13.20
2019-04-26T05:34:22.829Z,12.40
2019-04-26T05:36:22.802Z,15.60
2019-04-26T05:39:59.037Z,18.10
2019-04-26T05:40:59.022Z,16.40
2019-04-26T05:41:59.006Z,15.00
2019-04-26T05:42:58.983Z,14.90
2019-04-26T05:43:58.983Z,14.10
2019-04-26T05:44:58.987Z,12.90
2019-04-26T05:45:58.939Z,13.00
2019-04-26T05:46:58.923Z,13.60
2019-04-26T05:48:08.439Z,15.60
2019-04-26T05:48:58.879Z,14.70
2019-04-26T05:49:58.864Z,15.40
2019-04-26T05:50:58.848Z,16.60
2019-04-26T05:51:58.832Z,21.30
2019-04-26T05:52:59.769Z,20.80
2019-04-26T05:53:58.795Z,12.40
2019-04-26T05:54:58.789Z,14.80
2019-04-26T05:55:58.764Z,14.90
2019-04-26T05:56:58.744Z,16.20
2019-04-26T05:57:58.728Z,14.20
2019-04-26T05:59:01.432Z,14.80
2019-04-26T05:59:58.951Z,20.40
2019-04-26T06:00:58.684Z,17.70
2019-04-26T06:01:59.020Z,16.10
2019-04-26T06:02:59.032Z,14.60
2019-04-26T06:03:58.629Z,13.40
2019-04-26T06:04:59.264Z,13.50
2019-04-26T06:05:58.611Z,17.20
2019-04-26T06:06:59.351Z,15.70
2019-04-26T06:07:58.638Z,19.90
2019-04-26T06:08:59.553Z,16.90
2019-04-26T06:09:58.672Z,26.20
2019-04-26T06:10:58.515Z,17.60
2019-04-26T06:11:58.781Z,18.20
2019-04-26T06:12:58.754Z,16.70
2019-04-26T06:13:58.468Z,14.20
2019-04-26T06:14:58.918Z,15.20
2019-04-26T06:15:58.420Z,14.10
2019-04-26T06:16:59.225Z,13.50
2019-04-26T06:17:58.393Z,13.90
2019-04-26T06:18:59.581Z,13.50
2019-04-26T06:19:59.379Z,17.70
2019-04-26T06:20:58.347Z,15.30
2019-04-26T06:21:58.325Z,13.40
2019-04-26T06:22:59.662Z,12.70
2019-04-26T06:23:58.295Z,16.70
2019-04-26T06:24:58.270Z,15.60
2019-04-26T06:26:00.990Z,23.60
2019-04-26T06:27:09.277Z,18.70
2019-04-26T06:27:58.432Z,17.00
2019-04-26T06:28:59.032Z,15.20
2019-04-26T06:29:58.772Z,14.10
2019-04-26T06:30:59.298Z,12.90
2019-04-26T06:31:58.162Z,12.00
2019-04-26T06:33:04.015Z,14.10
2019-04-26T06:33:58.723Z,12.70
2019-04-26T06:34:59.280Z,13.10
2019-04-26T06:35:59.225Z,17.70
2019-04-26T06:36:58.065Z,16.30
2019-04-26T06:37:58.051Z,14.90
2019-04-26T06:38:58.052Z,19.50
2019-04-26T06:39:58.016Z,17.20
2019-04-26T06:40:58.221Z,13.10
2019-04-26T06:41:58.488Z,12.60
2019-04-26T06:42:58.295Z,18.80
2019-04-26T06:43:58.303Z,19.50
2019-04-26T06:44:58.340Z,14.40
2019-04-26T06:45:58.599Z,12.60
2019-04-26T06:46:57.910Z,13.90
2019-04-26T06:47:58.811Z,13.90
2019-04-26T06:48:58.919Z,16.20
2019-04-26T06:49:57.848Z,19.50
2019-04-26T06:50:58.503Z,12.80
2019-04-26T06:51:58.446Z,13.80
2019-04-26T06:52:58.136Z,13.00
2019-04-26T06:53:58.612Z,12.60
2019-04-26T06:54:57.887Z,13.80
2019-04-26T06:55:59.063Z,15.30
2019-04-26T06:57:08.007Z,15.60
2019-04-26T06:57:59.435Z,12.80
2019-04-26T06:58:57.975Z,11.70
2019-04-26T06:59:57.679Z,12.60
2019-04-26T07:00:57.670Z,13.20
2019-04-26T07:01:59.060Z,12.70
2019-04-26T07:02:57.626Z,12.70
2019-04-26T07:03:58.346Z,13.00
2019-04-26T07:04:59.180Z,14.50
2019-04-26T07:05:58.810Z,16.90
2019-04-26T07:06:58.221Z,12.80
2019-04-26T07:07:57.540Z,12.70
2019-04-26T07:08:59.405Z,11.70
2019-04-26T07:09:58.767Z,13.20
2019-04-26T07:10:59.122Z,12.10
2019-04-26T07:11:59.373Z,10.80
2019-04-26T07:12:58.690Z,11.60
2019-04-26T07:13:59.178Z,12.30
2019-04-26T07:14:57.421Z,16.10
2019-04-26T07:15:57.413Z,12.00
2019-04-26T07:16:58.213Z,11.70
2019-04-26T07:17:57.369Z,11.80
2019-04-26T07:18:57.354Z,12.70
2019-04-26T07:19:59.639Z,13.00
2019-04-26T07:20:57.324Z,12.10
2019-04-26T07:21:57.303Z,10.90
2019-04-26T07:22:57.329Z,14.20
2019-04-26T07:23:57.270Z,18.80
2019-04-26T07:24:57.252Z,21.30
2019-04-26T07:25:57.237Z,20.20
2019-04-26T07:26:57.219Z,14.10
2019-04-26T07:28:03.626Z,14.00
2019-04-26T07:28:57.183Z,15.40
2019-04-26T07:29:57.210Z,18.10
2019-04-26T07:30:57.208Z,13.60
2019-04-26T07:31:57.139Z,12.80
2019-04-26T07:32:57.126Z,18.50
2019-04-26T07:33:57.103Z,17.50
2019-04-26T07:34:57.087Z,16.50
2019-04-26T07:35:58.892Z,16.90
2019-04-26T07:36:57.052Z,14.80
2019-04-26T07:37:57.036Z,14.40
2019-04-26T07:39:09.170Z,12.60
2019-04-26T07:39:57.010Z,13.90
2019-04-26T07:40:56.984Z,24.00
2019-04-26T07:41:56.970Z,17.60
2019-04-26T07:42:56.954Z,17.50
2019-04-26T07:43:56.932Z,15.20
2019-04-26T07:44:56.917Z,14.70
2019-04-26T07:45:56.901Z,11.50
2019-04-26T07:46:56.886Z,11.60
2019-04-26T07:47:56.874Z,11.90
2019-04-26T07:48:56.855Z,10.00
2019-04-26T07:49:56.833Z,10.60
2019-04-26T07:50:56.825Z,12.20
2019-04-26T07:51:56.799Z,10.40
2019-04-26T07:52:56.792Z,11.30
2019-04-26T07:53:56.771Z,13.10
2019-04-26T07:54:56.754Z,23.20
2019-04-26T07:55:56.735Z,25.80
2019-04-26T07:56:56.713Z,15.40
2019-04-26T07:57:56.698Z,16.50
2019-04-26T07:58:56.684Z,21.60
2019-04-26T07:59:56.668Z,20.30
2019-04-26T08:00:56.648Z,20.40
2019-04-26T08:01:56.642Z,18.30
2019-04-26T08:02:56.617Z,13.60
2019-04-26T08:03:56.604Z,18.90
2019-04-26T08:04:56.582Z,14.60
2019-04-26T08:05:56.565Z,14.10
2019-04-26T08:06:56.548Z,14.40
2019-04-26T08:07:56.532Z,14.20
2019-04-26T08:08:56.514Z,13.80
2019-04-26T08:09:59.869Z,13.40
2019-04-26T08:10:56.490Z,14.70
2019-04-26T08:11:56.474Z,13.50
2019-04-26T08:12:56.543Z,15.90
2019-04-26T08:13:56.542Z,18.30
2019-04-26T08:14:56.424Z,18.50
2019-04-26T08:15:56.396Z,19.20
2019-04-26T08:16:56.380Z,14.50
2019-04-26T08:17:56.367Z,14.30
2019-04-26T08:18:56.347Z,14.60
2019-04-26T08:19:57.584Z,14.40
2019-04-26T08:20:56.311Z,15.10
2019-04-26T08:22:11.157Z,16.70
2019-04-26T08:22:56.286Z,17.80
2019-04-26T08:23:57.712Z,16.40
2019-04-26T08:24:56.299Z,17.30
2019-04-26T08:25:56.230Z,16.10
2019-04-26T08:27:08.068Z,14.90
2019-04-26T08:27:56.195Z,24.50
2019-04-26T08:28:56.638Z,17.90
2019-04-26T08:29:56.162Z,20.50
2019-04-26T08:30:56.147Z,19.90
2019-04-26T08:31:57.866Z,19.40
2019-04-26T08:32:56.113Z,19.00
2019-04-26T08:33:56.096Z,17.00
2019-04-26T08:34:56.077Z,17.10
2019-04-26T08:35:56.072Z,22.60
2019-04-26T08:36:57.451Z,22.20
2019-04-26T08:37:56.029Z,17.60
2019-04-26T08:38:56.022Z,15.80
2019-04-26T08:39:56.076Z,17.70
2019-04-26T08:40:55.979Z,18.50
2019-04-26T08:41:55.963Z,17.50
2019-04-26T08:42:57.442Z,16.60
2019-04-26T08:43:55.932Z,14.80
2019-04-26T08:44:55.915Z,21.40
2019-04-26T08:46:02.918Z,17.30
2019-04-26T08:46:57.063Z,23.00
2019-04-26T08:47:55.867Z,15.50
2019-04-26T08:48:58.087Z,12.60
2019-04-26T08:49:55.828Z,14.80
2019-04-26T08:50:55.819Z,16.80
2019-04-26T08:51:56.158Z,14.20
2019-04-26T08:52:57.879Z,13.90
2019-04-26T08:53:55.775Z,15.90
2019-04-26T08:54:55.755Z,16.20
2019-04-26T08:55:55.733Z,15.10
2019-04-26T08:56:55.716Z,17.40
2019-04-26T08:57:55.694Z,12.70
2019-04-26T08:58:55.690Z,13.50
2019-04-26T08:59:55.664Z,13.30
2019-04-26T09:00:55.644Z,12.50
2019-04-26T09:01:55.627Z,13.90
2019-04-26T09:02:55.611Z,12.10
2019-04-26T09:03:55.598Z,13.60
2019-04-26T09:04:55.575Z,12.80
2019-04-26T09:05:55.559Z,12.90
2019-04-26T09:06:55.551Z,13.40
2019-04-26T09:07:57.687Z,17.70
2019-04-26T09:08:55.509Z,19.30
2019-04-26T09:09:57.490Z,20.40
2019-04-26T09:10:55.477Z,18.90
2019-04-26T09:11:59.884Z,14.50
2019-04-26T09:12:55.439Z,13.00
2019-04-26T09:13:55.424Z,15.00
2019-04-26T09:14:55.433Z,27.80
2019-04-26T09:15:55.403Z,14.80
2019-04-26T09:16:55.379Z,13.10
2019-04-26T09:17:55.357Z,13.50
2019-04-26T09:18:59.339Z,12.70
2019-04-26T09:19:58.079Z,12.20
2019-04-26T09:20:55.312Z,18.90
2019-04-26T09:21:55.301Z,15.30
2019-04-26T09:22:56.651Z,11.30
2019-04-26T09:23:55.258Z,11.10
2019-04-26T09:24:59.519Z,12.20
2019-04-26T09:25:59.296Z,11.70
2019-04-26T09:26:55.221Z,12.00
2019-04-26T09:27:55.206Z,13.70
2019-04-26T09:28:56.518Z,16.20
2019-04-26T09:29:55.170Z,17.80
2019-04-26T09:30:55.143Z,14.40
2019-04-26T09:31:55.416Z,16.70
2019-04-26T09:32:58.230Z,14.50
2019-04-26T09:33:55.096Z,13.10
2019-04-26T09:34:55.080Z,14.50
2019-04-26T09:35:55.066Z,14.10
2019-04-26T09:36:55.049Z,16.00
2019-04-26T09:37:55.033Z,14.00
2019-04-26T09:38:55.020Z,15.90
2019-04-26T09:39:55.003Z,16.20
2019-04-26T09:40:56.332Z,19.70
2019-04-26T09:41:54.969Z,16.70
2019-04-26T09:42:54.958Z,12.60
2019-04-26T09:43:58.615Z,13.20
2019-04-26T09:44:56.902Z,14.60
2019-04-26T09:45:54.902Z,13.40
2019-04-26T09:46:54.894Z,16.00
2019-04-26T09:47:54.876Z,14.70
2019-04-26T09:48:54.859Z,14.00
2019-04-26T09:49:54.848Z,13.30
2019-04-26T09:50:54.826Z,14.00
2019-04-26T09:51:54.816Z,15.40
2019-04-26T09:52:54.792Z,17.60
2019-04-26T09:53:54.778Z,18.60
2019-04-26T09:54:54.770Z,19.80
2019-04-26T09:55:54.745Z,17.70
2019-04-26T09:56:54.739Z,14.20
2019-04-26T09:57:56.964Z,15.10
2019-04-26T09:58:54.699Z,19.00
2019-04-26T09:59:54.681Z,16.70
2019-04-26T10:00:54.673Z,14.00
2019-04-26T10:01:55.345Z,14.20
2019-04-26T10:02:54.639Z,14.00
2019-04-26T10:03:54.622Z,15.20
2019-04-26T10:04:54.605Z,15.90
2019-04-26T10:05:55.922Z,13.90
2019-04-26T10:06:54.575Z,19.90
2019-04-26T10:07:54.566Z,15.20
2019-04-26T10:08:54.541Z,15.00
2019-04-26T10:09:56.501Z,17.20
2019-04-26T10:10:54.521Z,21.90
2019-04-26T10:11:54.496Z,20.60
2019-04-26T10:12:54.483Z,41.40
2019-04-26T10:13:54.480Z,55.90
2019-04-26T10:14:54.457Z,27.30
2019-04-26T10:15:58.092Z,22.90
2019-04-26T10:16:54.421Z,22.00
2019-04-26T10:17:54.432Z,19.20
2019-04-26T10:18:54.587Z,18.70
2019-04-26T10:19:54.371Z,17.20
2019-04-26T10:20:54.353Z,17.60
2019-04-26T10:21:54.344Z,19.10
2019-04-26T10:22:54.327Z,18.10
2019-04-26T10:23:54.310Z,16.10
2019-04-26T10:24:54.290Z,13.50
2019-04-26T10:25:54.280Z,13.90
2019-04-26T10:26:55.509Z,15.20
2019-04-26T10:27:54.255Z,14.80
2019-04-26T10:28:54.234Z,17.40
2019-04-26T10:29:56.581Z,18.20
2019-04-26T10:30:54.206Z,14.70
2019-04-26T10:31:54.190Z,15.20
2019-04-26T10:32:54.169Z,18.10
2019-04-26T10:33:54.158Z,19.20
2019-04-26T10:34:54.141Z,17.00
2019-04-26T10:35:56.630Z,16.30
2019-04-26T10:36:56.827Z,17.20
2019-04-26T10:37:54.096Z,18.20
2019-04-26T10:38:54.420Z,20.10
2019-04-26T10:39:54.067Z,20.00
2019-04-26T10:40:54.058Z,17.90
2019-04-26T10:41:54.035Z,15.50
2019-04-26T10:42:54.024Z,14.90
2019-04-26T10:43:54.006Z,15.20
2019-04-26T10:44:53.985Z,15.20
2019-04-26T10:45:55.028Z,15.90
2019-04-26T10:46:55.605Z,20.50
2019-04-26T10:47:53.946Z,18.20
2019-04-26T10:48:53.925Z,16.00
2019-04-26T10:49:54.388Z,15.40
2019-04-26T10:50:53.897Z,16.70
2019-04-26T10:51:53.878Z,19.20
2019-04-26T10:52:55.585Z,18.70
2019-04-26T10:53:53.849Z,18.40
2019-04-26T10:54:53.836Z,18.50
2019-04-26T10:55:53.819Z,19.30
2019-04-26T10:56:55.031Z,20.50
2019-04-26T10:57:53.790Z,20.60
2019-04-26T10:58:53.772Z,18.70
2019-04-26T10:59:53.761Z,20.00
2019-04-26T11:00:54.117Z,19.60
2019-04-26T11:01:53.734Z,16.10
2019-04-26T11:02:53.710Z,18.50
2019-04-26T11:03:53.695Z,20.10
2019-04-26T11:04:53.681Z,19.00
2019-04-26T11:05:55.304Z,15.10
2019-04-26T11:06:53.672Z,17.90
2019-04-26T11:07:53.633Z,19.10
2019-04-26T11:08:53.618Z,22.30
2019-04-26T11:09:53.605Z,18.90
2019-04-26T11:10:53.588Z,16.10
2019-04-26T11:11:53.576Z,16.20
2019-04-26T11:12:53.560Z,15.10
2019-04-26T11:13:53.542Z,15.20
2019-04-26T11:14:56.906Z,18.00
2019-04-26T11:15:53.515Z,22.30
2019-04-26T11:16:53.505Z,20.90
2019-04-26T11:17:53.490Z,14.90
2019-04-26T11:18:53.462Z,17.00
2019-04-26T11:19:53.446Z,17.00
2019-04-26T11:20:53.432Z,14.90
2019-04-26T11:21:54.792Z,17.40
2019-04-26T11:22:53.432Z,15.40
2019-04-26T11:23:53.388Z,15.20
2019-04-26T11:24:53.895Z,14.20
2019-04-26T11:25:53.422Z,18.10
2019-04-26T11:26:53.347Z,19.50
2019-04-26T11:27:53.334Z,18.10
2019-04-26T11:28:55.820Z,18.90
2019-04-26T11:29:54.182Z,16.00
2019-04-26T11:30:57.045Z,16.90
2019-04-26T11:31:54.215Z,25.70
2019-04-26T11:32:53.246Z,17.60
2019-04-26T11:34:04.713Z,17.10
2019-04-26T11:34:54.581Z,17.20
2019-04-26T11:35:53.242Z,20.40
2019-04-26T11:36:53.179Z,14.60
2019-04-26T11:37:55.238Z,13.70
2019-04-26T11:38:53.148Z,13.40
2019-04-26T11:39:53.138Z,13.90
2019-04-26T11:41:05.438Z,12.80
2019-04-26T11:41:53.100Z,16.00
2019-04-26T11:42:53.103Z,13.00
2019-04-26T11:43:54.516Z,14.10
2019-04-26T11:44:56.420Z,13.10
2019-04-26T11:46:03.726Z,14.10
2019-04-26T11:46:53.024Z,12.50
2019-04-26T11:47:56.325Z,15.50
2019-04-26T11:48:58.752Z,14.30
2019-04-26T11:49:53.022Z,14.10
2019-04-26T11:50:53.659Z,12.20
2019-04-26T11:51:52.946Z,14.30
2019-04-26T11:52:52.933Z,15.30
2019-04-26T11:53:52.920Z,17.10
2019-04-26T11:54:55.133Z,18.40
2019-04-26T11:55:52.885Z,16.90
2019-04-26T11:56:52.870Z,20.00
2019-04-26T11:57:52.852Z,19.50
2019-04-26T11:58:56.668Z,18.20
2019-04-26T11:59:52.820Z,13.60
2019-04-26T12:00:52.806Z,12.40
2019-04-26T12:01:52.790Z,14.10
2019-04-26T12:02:52.784Z,12.70
2019-04-26T12:03:55.624Z,13.20
2019-04-26T12:04:53.770Z,13.90
2019-04-26T12:05:52.751Z,13.60
2019-04-26T12:06:52.716Z,13.90
2019-04-26T12:07:52.703Z,13.00
2019-04-26T12:08:52.696Z,14.50
2019-04-26T12:09:52.675Z,13.00
2019-04-26T12:10:52.661Z,11.80
2019-04-26T12:12:03.912Z,12.90
2019-04-26T12:13:04.908Z,12.10
2019-04-26T12:13:55.292Z,13.70
2019-04-26T12:14:52.605Z,12.00
2019-04-26T12:15:52.592Z,11.10
2019-04-26T12:16:58.872Z,13.60
2019-04-26T12:17:58.671Z,23.00
2019-04-26T12:18:52.551Z,14.40
2019-04-26T12:19:53.336Z,12.80
2019-04-26T12:20:52.518Z,20.80
2019-04-26T12:21:52.502Z,16.90
2019-04-26T12:22:52.487Z,15.20
2019-04-26T12:23:55.569Z,15.30
2019-04-26T12:24:52.480Z,14.70
2019-04-26T12:25:52.444Z,13.50
2019-04-26T12:26:55.913Z,13.00
2019-04-26T12:27:53.577Z,14.80
2019-04-26T12:28:52.400Z,16.70
2019-04-26T12:29:52.388Z,14.10
2019-04-26T12:30:54.113Z,16.20
2019-04-26T12:31:52.371Z,14.10
2019-04-26T12:32:52.347Z,19.60
2019-04-26T12:33:52.335Z,17.10
2019-04-26T12:34:52.318Z,13.00
2019-04-26T12:35:57.163Z,13.60
2019-04-26T12:36:52.294Z,16.10
2019-04-26T12:37:54.650Z,17.90
2019-04-26T12:38:52.258Z,13.00
2019-04-26T12:39:52.246Z,13.40
2019-04-26T12:40:52.229Z,13.40
2019-04-26T12:41:52.225Z,14.00
2019-04-26T12:42:52.205Z,12.40
2019-04-26T12:43:54.463Z,12.90
2019-04-26T12:44:52.180Z,14.00
2019-04-26T12:45:52.561Z,15.30
2019-04-26T12:46:52.186Z,20.30
2019-04-26T12:47:52.133Z,16.70
2019-04-26T12:48:52.113Z,16.80
2019-04-26T12:49:54.476Z,13.20
2019-04-26T12:50:52.090Z,13.60
2019-04-26T12:51:52.276Z,13.70
2019-04-26T12:52:55.510Z,12.20
2019-04-26T12:53:52.057Z,14.10
2019-04-26T12:54:52.028Z,13.50
2019-04-26T12:55:53.685Z,13.70
2019-04-26T12:56:52.006Z,14.90
2019-04-26T12:57:51.985Z,14.70
2019-04-26T12:58:51.972Z,17.40
2019-04-26T12:59:51.964Z,12.60